Sligo, Ireland
Current Conditions -  °F | °C
As of 7:30 PM on Monday 26 Jan 2015 (Local Time) from EIKN Reporting Station
Broken Clouds Broken Clouds  
Wind Chill: 36°   Ceiling: 3500
Heat Index: 41°   Visibility: 6mi
Dew Point: 39°   Wind: 8mph
Humidity: 93%   Direction: 290°WNW
Pressure: 30.39"   Gusts: NA
Location:  54.28°N, 8.48°W
Report Text: EIKN 261930Z 29007KT 9999 SCT024 BKN035 BKN120 05/04 Q1029 NOSIG
Loading
Personal Weather Stations






























Interactive Weather Map New forecast layout! Learn more

10-Day Weather Forecast

Advertisements
Track Severe Weather on mobile